KBQX

Brazos 451 Oil Platform

Brazos 451, Texas, USA
METAR KBQX 180015Z AUTO 02017KT 10SM OVC014 21/18 A3016 RMK A01
Observed Flight Rules
Oct-18 @ 00:15 UTC (30 minutes ago) Marginal Visual Flight Rules
Wind Visibility Clouds
20° at 17 knots 10 miles
  • Overcast at 1,400' AGL
Temperatures Readings
Current 21°C / 70°F
Dewpoint 18°C / 64°F
Humidity 83%
Altimeter 30.16" Hg
Pressure 1021 hPa
Elevation 34
METAR KBQX 180015Z AUTO 02017KT 10SM OVC014 21/18 A3016 RMK A01
Observed Flight Rules
Oct-18 @ 00:15 UTC
(30 minutes ago)
MVFR
Wind Visibility
20° at 17 knots 10 miles
Clouds
  • Overcast at 1,400' AGL
Temperature Dewpoint
21°C / 70°F 18°C / 64°F
Humidity Altimeter Pressure
83% 30.16" Hg 1021 hPa